Time;durP1;ratioP1;P1;durP2;ratioP2;P2;SDS_P1;SDS_P2;PMS_P1;PMS_P2;Temp;Humidity;BMP_temperature;BMP_pressure;BME280_temperature;BME280_humidity;BME280_pressure;Samples;Min_cycle;Max_cycle;Signal;HPM_P1;HPM_P2
2022/07/30 14:16:18;;;;;;;22.80;21.30;;;;;;;-141.02;53.39;79842.66;5102648;27;1989459;-78
2022/07/30 14:18:46;;;;;;;22.77;21.27;;;;;;;-141.02;53.81;79889.25;5151249;27;20577;-77
2022/07/30 14:21:13;;;;;;;22.80;21.30;;;;;;;-141.02;54.07;79908.66;5150831;27;20199;-75
2022/07/30 14:23:41;;;;;;;23.10;21.50;;;;;;;-141.02;54.30;79900.88;5151022;27;20256;-76
2022/07/30 14:26:08;;;;;;;22.75;21.20;;;;;;;-141.02;54.24;79865.97;5150680;27;20648;-79
2022/07/30 14:28:35;;;;;;;22.30;20.80;;;;;;;-141.02;53.22;79714.59;5150688;27;20203;-76
2022/07/30 14:31:03;;;;;;;23.08;21.48;;;;;;;-141.02;51.94;79549.63;5150658;27;20279;-77
2022/07/30 14:33:32;;;;;;;24.10;22.45;;;;;;;-141.02;51.63;79524.41;5151126;27;20195;-77
2022/07/30 14:35:59;;;;;;;24.30;22.70;;;;;;;-141.02;51.73;79547.69;5150625;27;20282;-75
2022/07/30 14:38:27;;;;;;;25.92;24.20;;;;;;;-141.02;51.22;79501.13;5150499;27;20200;-77
2022/07/30 14:40:54;;;;;;;23.50;21.90;;;;;;;-141.02;51.10;79547.69;5150484;27;20203;-76
2022/07/30 14:43:23;;;;;;;24.63;23.02;;;;;;;-141.02;51.99;79629.19;5150371;27;20275;-78
2022/07/30 14:45:52;;;;;;;25.77;24.08;;;;;;;-141.02;52.67;79718.47;5150288;27;20689;-75
2022/07/30 14:48:19;;;;;;;24.90;23.20;;;;;;;-141.02;52.73;79722.34;5150582;27;20201;-76
2022/07/30 14:50:48;;;;;;;24.35;22.65;;;;;;;-141.02;51.60;79716.53;5150257;27;20282;-76
2022/07/30 14:53:16;;;;;;;24.80;23.15;;;;;;;-141.02;52.10;79745.63;5150238;27;20191;-77
2022/07/30 14:55:44;;;;;;;24.35;22.75;;;;;;;-141.02;51.57;79710.69;5150164;27;20282;-77
2022/07/30 14:58:11;;;;;;;25.17;23.42;;;;;;;-141.02;52.09;79702.94;5150140;27;20564;-77
2022/07/30 15:00:39;;;;;;;22.75;21.25;;;;;;;-141.02;52.18;79741.75;5150115;27;20192;-76
2022/07/30 15:03:06;;;;;;;24.17;22.58;;;;;;;-141.02;51.99;79481.72;5150055;27;20195;-75
2022/07/30 15:05:34;;;;;;;24.52;22.92;;;;;;;-141.02;51.18;79621.44;5149909;27;20284;-76
2022/07/30 15:08:03;;;;;;;22.20;20.67;;;;;;;-141.02;50.44;79547.69;5150174;27;20192;-79
2022/07/30 15:10:30;;;;;;;22.95;21.45;;;;;;;-141.02;49.37;79404.09;5149875;27;20246;-77
2022/07/30 15:12:57;;;;;;;22.60;21.00;;;;;;;-141.02;49.48;79407.97;5149803;27;20199;-76
2022/07/30 15:15:25;;;;;;;23.73;22.13;;;;;;;-141.02;48.17;79252.72;5146046;27;20334;-76
2022/07/30 15:17:53;;;;;;;23.23;21.63;;;;;;;-141.02;48.58;79227.50;5135932;27;20753;-76
2022/07/30 15:20:20;;;;;;;24.30;22.60;;;;;;;-141.02;48.67;79192.56;5135901;27;20253;-76
2022/07/30 15:22:47;;;;;;;22.60;21.00;;;;;;;-141.02;48.58;79175.13;5135881;27;20196;-75
2022/07/30 15:25:16;;;;;;;22.27;20.73;;;;;;;-141.02;48.59;79210.03;5136007;27;20227;-76
2022/07/30 15:27:44;;;;;;;23.35;21.75;;;;;;;-141.02;48.35;79144.06;5136069;27;20345;-76
2022/07/30 15:30:12;;;;;;;22.95;21.35;;;;;;;-141.02;51.65;79481.72;5135963;27;20268;-76
2022/07/30 15:32:40;;;;;;;23.85;22.25;;;;;;;-141.02;53.43;79671.88;5135645;27;20199;-77
2022/07/30 15:35:07;;;;;;;23.20;21.70;;;;;;;-141.02;55.97;79997.94;5135866;27;20228;-74
2022/07/30 15:37:35;;;;;;;23.05;21.55;;;;;;;-141.02;57.76;80143.50;5135577;27;20193;-76
2022/07/30 15:40:03;;;;;;;21.42;19.92;;;;;;;-141.02;60.04;80289.06;5135596;27;20192;-78
2022/07/30 15:42:31;;;;;;;21.38;19.98;;;;;;;-141.02;60.96;80444.34;5135424;27;20203;-75
2022/07/30 15:44:59;;;;;;;21.27;19.88;;;;;;;-141.02;62.10;80533.66;5135634;27;20224;-75
2022/07/30 15:47:27;;;;;;;20.58;19.17;;;;;;;-141.02;62.48;80560.81;5135657;27;20195;-75
2022/07/30 15:49:55;;;;;;;20.98;19.58;;;;;;;-141.02;62.58;80553.06;5135303;27;20680;-75
2022/07/30 15:52:22;;;;;;;20.85;19.45;;;;;;;-141.02;61.30;80529.75;5135595;27;20219;-74
2022/07/30 15:54:50;;;;;;;20.67;19.27;;;;;;;-141.02;61.08;80514.22;5135506;27;20192;-75
2022/07/30 15:57:17;;;;;;;20.63;19.27;;;;;;;-141.02;60.52;80452.13;5135502;27;20239;-75
2022/07/30 15:59:46;;;;;;;19.92;18.52;;;;;;;-141.02;60.98;80465.69;5135134;27;20200;-75
2022/07/30 16:02:13;;;;;;;20.90;19.50;;;;;;;-141.02;61.23;80463.75;5135110;27;20279;-75
2022/07/30 16:04:41;;;;;;;20.50;19.10;;;;;;;-141.02;61.44;80479.28;5135285;27;20575;-74
2022/07/30 16:07:08;;;;;;;19.70;18.30;;;;;;;-141.02;61.81;80518.13;5134952;27;20618;-76
2022/07/30 16:09:35;;;;;;;19.90;18.50;;;;;;;-141.02;62.42;80574.41;5134998;27;20211;-78
2022/07/30 16:12:03;;;;;;;20.40;19.00;;;;;;;-141.02;62.57;80572.47;5134857;27;20192;-77
2022/07/30 16:14:30;;;;;;;20.00;18.70;;;;;;;-141.02;63.01;80568.59;5134712;27;20224;-75
2022/07/30 16:16:59;;;;;;;20.35;18.98;;;;;;;-141.02;63.26;80584.13;5134840;27;20188;-75
2022/07/30 16:19:27;;;;;;;20.50;19.10;;;;;;;-141.02;63.79;80657.88;5134782;27;20600;-74
2022/07/30 16:21:54;;;;;;;20.30;18.90;;;;;;;-141.02;64.01;80634.59;5134657;27;20192;-76
2022/07/30 16:24:22;;;;;;;21.35;19.95;;;;;;;-141.02;64.15;80646.22;5134582;27;20228;-76
2022/07/30 16:26:49;;;;;;;21.67;20.17;;;;;;;-141.02;64.47;80677.28;5134230;27;20197;-75
2022/07/30 16:29:16;;;;;;;21.77;20.27;;;;;;;-141.02;65.05;80712.22;5133992;27;20196;-76
2022/07/30 16:31:44;;;;;;;21.60;20.10;;;;;;;-141.02;65.41;80708.34;5134811;27;20196;-74
2022/07/30 16:34:13;;;;;;;21.75;20.27;;;;;;;-141.02;65.75;80756.88;5134426;27;20650;-75
2022/07/30 16:36:40;;;;;;;22.50;21.00;;;;;;;-141.02;65.75;80723.88;5134395;27;20196;-74
2022/07/30 16:39:08;;;;;;;20.90;19.50;;;;;;;-141.02;65.85;80731.66;5134384;27;20813;-75
2022/07/30 16:41:35;;;;;;;21.70;20.20;;;;;;;-141.02;65.87;80733.59;5134269;27;20243;-74
2022/07/30 16:44:03;;;;;;;20.30;18.90;;;;;;;-141.02;65.92;80762.69;5134225;27;20247;-75
2022/07/30 16:46:31;;;;;;;20.70;19.25;;;;;;;-141.02;66.22;80780.19;5134110;27;20586;-72
2022/07/30 16:48:58;;;;;;;21.67;20.17;;;;;;;-141.02;66.30;80739.41;5134134;27;20196;-74
2022/07/30 16:51:27;;;;;;;21.80;20.30;;;;;;;-141.02;66.93;80780.19;5134075;27;20188;-75
2022/07/30 16:53:54;;;;;;;21.08;19.67;;;;;;;-141.02;67.32;80805.41;5134025;27;20590;-75
2022/07/30 16:56:22;;;;;;;22.17;20.67;;;;;;;-141.02;67.35;80817.06;5134850;27;20237;-75
2022/07/30 16:58:49;;;;;;;22.67;21.17;;;;;;;-141.02;66.77;80789.88;5133920;27;20192;-75
2022/07/30 17:01:17;;;;;;;23.10;21.70;;;;;;;-141.02;66.46;80766.59;5133968;27;20289;-75
2022/07/30 17:03:44;;;;;;;21.80;20.40;;;;;;;-141.02;66.74;80793.75;5133829;27;20275;-74
2022/07/30 17:06:11;;;;;;;21.88;20.40;;;;;;;-141.02;66.71;80801.53;5133750;27;20576;-77
2022/07/30 17:08:40;;;;;;;22.73;21.33;;;;;;;-141.02;69.81;80890.84;5133813;27;20693;-76
2022/07/30 17:11:08;;;;;;;22.25;20.85;;;;;;;-141.02;71.68;80914.13;5133755;27;20199;-73
2022/07/30 17:13:35;;;;;;;21.25;19.90;;;;;;;-141.02;73.12;80976.25;5133682;27;20554;-83
2022/07/30 17:16:03;;;;;;;22.17;20.77;;;;;;;-141.02;73.28;80918.00;5133528;27;20761;-76
2022/07/30 17:18:30;;;;;;;20.63;19.23;;;;;;;-141.02;72.88;80999.53;5133926;27;20192;-74
2022/07/30 17:20:57;;;;;;;21.40;20.00;;;;;;;-141.02;72.76;81003.44;5133531;27;20200;-74
2022/07/30 17:23:25;;;;;;;21.23;19.92;;;;;;;-141.02;72.62;80999.53;5133485;27;20193;-76
2022/07/30 17:25:54;;;;;;;21.10;19.75;;;;;;;-141.02;72.38;81011.19;5133415;27;20224;-76
2022/07/30 17:28:22;;;;;;;21.05;19.65;;;;;;;-141.02;71.94;81007.31;5133414;27;20620;-78
2022/07/30 17:30:49;;;;;;;21.90;20.50;;;;;;;-141.02;71.00;80997.59;5133649;27;20203;-73
2022/07/30 17:33:17;;;;;;;21.35;19.95;;;;;;;-141.02;71.48;81011.19;5134077;27;20245;-79
2022/07/30 17:35:44;;;;;;;22.13;20.63;;;;;;;-141.02;72.39;81011.19;5134500;27;20257;-85
2022/07/30 17:38:12;;;;;;;23.55;22.05;;;;;;;-141.02;71.17;81057.78;5133821;27;20197;-78
2022/07/30 17:40:39;;;;;;;22.83;21.33;;;;;;;-141.02;71.62;81040.31;5133759;27;20192;-80
2022/07/30 17:43:10;;;;;;;21.80;20.40;;;;;;;-141.02;71.93;81069.44;5133662;27;20280;-77
2022/07/30 17:45:37;;;;;;;21.77;20.30;;;;;;;-141.02;71.50;81015.06;5133749;27;20212;-73
2022/07/30 17:48:06;;;;;;;21.35;19.95;;;;;;;-141.02;71.23;81050.03;5133712;27;20231;-78
2022/07/30 17:50:34;;;;;;;21.55;20.15;;;;;;;-141.02;71.73;81075.25;5133351;27;20203;-77
2022/07/30 17:53:02;;;;;;;22.63;21.23;;;;;;;-141.02;72.47;81108.28;5133506;27;20657;-77
2022/07/30 17:55:30;;;;;;;22.70;21.30;;;;;;;-141.02;73.63;81098.56;5133502;27;20200;-78
2022/07/30 17:57:57;;;;;;;23.08;21.58;;;;;;;-141.02;75.90;81094.69;5133670;27;20272;-78
2022/07/30 18:00:26;;;;;;;26.33;24.52;;;;;;;-141.02;84.30;81275.25;5133550;27;20188;-73
2022/07/30 18:02:54;;;;;;;29.92;27.58;;;;;;;-141.02;100.00;81319.91;5133666;28;20193;-77
2022/07/30 18:05:22;;;;;;;29.95;27.02;;;;;;;-141.02;100.00;81523.75;5133807;28;20306;-76
2022/07/30 18:07:50;;;;;;;31.92;29.42;;;;;;;-141.02;100.00;81628.63;5133645;28;20200;-77
2022/07/30 18:10:17;;;;;;;34.10;31.23;;;;;;;-141.02;100.00;81745.13;5133679;28;20287;-75
2022/07/30 18:12:45;;;;;;;33.13;30.23;;;;;;;-141.02;100.00;81795.63;5133504;28;20276;-80
2022/07/30 18:15:12;;;;;;;34.00;31.50;;;;;;;-141.02;100.00;81917.94;5133459;28;20235;-76
2022/07/30 18:17:41;;;;;;;36.67;34.08;;;;;;;-141.02;100.00;82218.97;5133382;28;20282;-75
2022/07/30 18:20:10;;;;;;;36.65;34.00;;;;;;;-141.02;100.00;82368.50;5133723;28;20196;-74
2022/07/30 18:22:37;;;;;;;31.48;28.77;;;;;;;-141.02;100.00;82554.97;5132880;28;20275;-76
2022/07/30 18:25:06;;;;;;;30.92;28.33;;;;;;;-141.02;100.00;82712.28;5133078;28;20303;-80
2022/07/30 18:27:33;;;;;;;30.08;27.67;;;;;;;-141.02;100.00;82871.56;5132916;28;20650;-74
2022/07/30 18:30:00;;;;;;;28.15;25.73;;;;;;;-141.02;100.00;83127.97;5132781;28;20592;-72
2022/07/30 18:32:28;;;;;;;28.92;26.42;;;;;;;-141.02;100.00;83431.03;5133190;28;20257;-72
2022/07/30 18:34:57;;;;;;;28.70;26.20;;;;;;;-141.02;100.00;84095.53;5133252;28;20192;-74
2022/07/30 18:37:25;;;;;;;31.08;28.67;;;;;;;-141.02;100.00;84618.28;5132628;28;20222;-73
2022/07/30 18:39:53;;;;;;;29.67;27.38;;;;;;;-141.02;100.00;84861.22;5132780;28;20246;-73
2022/07/30 18:42:20;;;;;;;30.95;28.52;;;;;;;-141.02;100.00;85238.28;5132552;28;20253;-77
2022/07/30 18:44:47;;;;;;;26.90;24.80;;;;;;;-141.02;100.00;85704.84;5132576;28;20232;-74
2022/07/30 18:47:17;;;;;;;26.25;24.25;;;;;;;-141.02;100.00;86120.88;5132574;28;20189;-78
2022/07/30 18:49:44;;;;;;;26.65;24.55;;;;;;;-141.02;100.00;86404.75;5132586;27;20227;-73
2022/07/30 18:52:13;;;;;;;32.17;29.88;;;;;;;-141.02;100.00;86894.81;5135573;27;20654;-73
2022/07/30 18:54:40;;;;;;;29.48;27.48;;;;;;;-141.02;100.00;87408.25;5136762;27;20226;-74
2022/07/30 18:57:08;;;;;;;25.35;23.55;;;;;;;-141.02;100.00;87816.72;5136684;27;20227;-74
2022/07/30 18:59:35;;;;;;;25.92;24.20;;;;;;;-141.02;100.00;88143.53;5136333;27;20684;-74
2022/07/30 19:02:05;;;;;;;25.65;23.85;;;;;;;-141.02;100.00;88225.25;5136220;27;20237;-74
2022/07/30 19:04:33;;;;;;;22.02;20.50;;;;;;;-141.02;100.00;88252.47;5136215;27;20203;-75
2022/07/30 19:07:00;;;;;;;21.88;20.38;;;;;;;-141.02;100.00;88349.75;5136395;27;20672;-72
2022/07/30 19:09:29;;;;;;;21.17;19.77;;;;;;;-141.02;100.00;88435.38;5136122;27;20710;-71
2022/07/30 19:11:57;;;;;;;19.60;18.30;;;;;;;-141.02;100.00;88474.28;5136039;27;20196;-72
2022/07/30 19:14:24;;;;;;;19.10;17.90;;;;;;;-141.02;100.00;88559.88;5135834;27;20193;-71
2022/07/30 19:16:52;;;;;;;20.30;19.00;;;;;;;-141.02;100.00;88624.09;5135978;27;20272;-72
2022/07/30 19:19:19;;;;;;;22.05;20.65;;;;;;;-141.02;100.00;88589.06;5135949;27;20283;-72
2022/07/30 19:21:46;;;;;;;20.65;19.35;;;;;;;-141.02;100.00;88534.59;5135929;27;20249;-73
2022/07/30 19:24:14;;;;;;;20.70;19.40;;;;;;;-141.02;100.00;88466.50;5135826;27;20193;-73
2022/07/30 19:26:43;;;;;;;18.73;17.52;;;;;;;-141.02;100.00;88400.34;5135736;27;20578;-72
2022/07/30 19:29:11;;;;;;;23.10;21.60;;;;;;;-141.02;100.00;88324.47;5135719;27;20197;-73
2022/07/30 19:31:40;;;;;;;21.00;19.60;;;;;;;-141.02;100.00;88322.53;5135690;27;20573;-73
2022/07/30 19:34:09;;;;;;;20.42;18.95;;;;;;;-141.02;100.00;88203.84;5135585;27;20653;-72
2022/07/30 19:36:38;;;;;;;21.73;20.33;;;;;;;-141.02;100.00;88312.78;5135630;27;20196;-71
2022/07/30 19:39:05;;;;;;;20.95;19.65;;;;;;;-141.02;100.00;88297.22;5135839;27;20653;-72
2022/07/30 19:41:39;;;;;;;21.17;19.77;;;;;;;-141.02;100.00;88303.06;5135542;27;20193;-71
2022/07/30 19:44:08;;;;;;;19.55;18.35;;;;;;;-141.02;100.00;88336.16;5135543;27;20181;-72
2022/07/30 19:46:36;;;;;;;17.58;16.58;;;;;;;-141.02;100.00;55844.97;5135319;27;20231;-74
2022/07/30 19:49:03;;;;;;;17.20;16.30;;;;;;;-141.02;100.00;88375.06;5135652;27;20570;-74
2022/07/30 19:51:31;;;;;;;19.00;17.95;;;;;;;-141.02;100.00;88369.22;5135293;27;20649;-74
2022/07/30 19:53:59;;;;;;;19.52;18.42;;;;;;;-141.02;100.00;88357.53;5117290;27;20241;-77
2022/07/30 19:56:26;;;;;;;22.33;20.88;;;;;;;-141.02;100.00;88104.63;5135325;27;20650;-73
2022/07/30 19:58:54;;;;;;;29.83;27.63;;;;;;;-141.02;100.00;86782.00;5135466;27;20200;-79
2022/07/30 20:01:23;;;;;;;27.48;25.48;;;;;;;-141.02;100.00;86377.53;5135621;27;20197;-78
2022/07/30 20:03:51;;;;;;;24.48;22.67;;;;;;;-141.02;100.00;86334.78;5135274;27;20766;-74
2022/07/30 20:06:18;;;;;;;28.10;26.10;;;;;;;-141.02;100.00;86362.00;5135024;27;20227;-75
2022/07/30 20:08:48;;;;;;;30.15;27.95;;;;;;;-141.02;100.00;86321.16;5135005;27;20226;-76
2022/07/30 20:11:15;;;;;;;29.83;27.73;;;;;;;-141.02;100.00;86393.09;5134936;27;20199;-72
2022/07/30 20:13:43;;;;;;;28.90;26.80;;;;;;;-141.02;100.00;86445.59;5134905;27;20681;-74
2022/07/30 20:16:11;;;;;;;32.10;29.90;;;;;;;-141.02;100.00;86435.88;5134730;27;20223;-72
2022/07/30 20:18:40;;;;;;;31.38;29.17;;;;;;;-141.02;100.00;86474.75;5134802;27;20231;-71
2022/07/30 20:21:08;;;;;;;34.80;32.40;;;;;;;-141.02;100.00;86463.09;5134713;27;20197;-75
2022/07/30 20:23:35;;;;;;;33.45;31.05;;;;;;;-141.02;100.00;86288.09;5134701;27;20199;-75
2022/07/30 20:26:07;;;;;;;34.08;31.58;;;;;;;-141.02;100.00;55844.97;5134530;27;20220;-75
2022/07/30 20:28:35;;;;;;;33.00;30.55;;;;;;;-141.02;100.00;55844.97;5134795;27;20185;-73
2022/07/30 20:31:02;;;;;;;32.58;30.27;;;;;;;-141.02;100.00;55844.97;5134502;27;20196;-75
2022/07/30 20:33:30;;;;;;;31.65;29.25;;;;;;;-141.02;100.00;85599.84;5134780;27;20228;-77
2022/07/30 20:35:58;;;;;;;30.00;27.80;;;;;;;-141.02;100.00;85529.88;5134433;27;20257;-74
2022/07/30 20:38:28;;;;;;;25.75;23.95;;;;;;;-141.02;100.00;85590.13;5134336;27;20196;-74
2022/07/30 20:40:55;;;;;;;20.45;19.15;;;;;;;-141.02;100.00;85821.47;5134356;27;20192;-72
2022/07/30 20:43:22;;;;;;;24.15;22.65;;;;;;;-141.02;100.00;86451.44;5134240;27;20195;-74
2022/07/30 20:45:50;;;;;;;21.58;20.27;;;;;;;-141.02;100.00;86898.69;5134465;27;20224;-74
2022/07/30 20:48:18;;;;;;;19.90;18.80;;;;;;;-141.02;100.00;87338.22;5134210;27;20196;-73
2022/07/30 20:50:45;;;;;;;19.10;18.10;;;;;;;-141.02;100.00;55844.97;5134138;27;20253;-74
2022/07/30 20:53:14;;;;;;;20.98;19.88;;;;;;;-141.02;100.00;87978.19;5134127;27;20192;-74
2022/07/30 20:55:42;;;;;;;20.13;19.02;;;;;;;-141.02;100.00;87964.56;5134056;27;20204;-74
2022/07/30 20:58:09;;;;;;;20.38;19.27;;;;;;;-141.02;100.00;88153.28;5134042;27;20200;-74
2022/07/30 21:00:37;;;;;;;19.55;18.45;;;;;;;-141.02;100.00;88184.41;5133920;27;20196;-74
2022/07/30 21:03:05;;;;;;;19.60;18.60;;;;;;;-141.02;100.00;88225.25;5133896;27;20196;-75
2022/07/30 21:05:34;;;;;;;18.40;17.50;;;;;;;-141.02;100.00;88330.31;5133728;27;20192;-74
2022/07/30 21:08:01;;;;;;;17.65;16.75;;;;;;;-141.02;100.00;88404.25;5133820;27;20249;-74
2022/07/30 21:10:30;;;;;;;19.33;18.33;;;;;;;-141.02;100.00;88458.72;5133817;27;20188;-74
2022/07/30 21:12:58;;;;;;;17.77;16.88;;;;;;;-141.02;100.00;88443.16;5133561;27;20192;-74
2022/07/30 21:15:25;;;;;;;19.20;18.20;;;;;;;-141.02;100.00;88454.81;5133148;27;20224;-74
2022/07/30 21:17:52;;;;;;;19.02;18.00;;;;;;;-141.02;100.00;88450.94;5133611;27;20196;-74
2022/07/30 21:20:20;;;;;;;16.25;15.40;;;;;;;-141.02;100.00;88450.94;5133638;27;20196;-74
2022/07/30 21:22:48;;;;;;;18.52;17.52;;;;;;;-141.02;100.00;88404.25;5133524;27;20192;-73
2022/07/30 21:25:15;;;;;;;19.60;18.50;;;;;;;-141.02;100.00;88415.91;5133502;27;20196;-73
2022/07/30 21:27:44;;;;;;;19.50;18.50;;;;;;;-141.02;100.00;88415.91;5133696;27;20219;-73
2022/07/30 21:30:12;;;;;;;19.15;18.15;;;;;;;-141.02;100.00;88435.38;5133440;27;20626;-73
2022/07/30 21:32:40;;;;;;;19.33;18.33;;;;;;;-141.02;100.00;88450.94;5133450;27;20422;-73
2022/07/30 21:35:08;;;;;;;19.40;18.40;;;;;;;-141.02;100.00;88505.41;5133370;27;20196;-73
2022/07/30 21:37:36;;;;;;;18.40;17.40;;;;;;;-141.02;100.00;88520.97;5133293;27;20261;-73
2022/07/30 21:40:05;;;;;;;19.95;18.85;;;;;;;-141.02;100.00;88524.88;5133303;27;20188;-73
2022/07/30 21:42:32;;;;;;;18.60;17.60;;;;;;;-141.02;100.00;88583.25;5133245;27;20196;-73
2022/07/30 21:45:01;;;;;;;18.08;17.17;;;;;;;-141.02;100.00;88635.78;5133226;27;20262;-73
2022/07/30 21:47:29;;;;;;;18.73;17.83;;;;;;;-141.02;100.00;88758.34;5133926;27;20234;-73
2022/07/30 21:49:56;;;;;;;17.73;16.92;;;;;;;-141.02;100.00;88808.94;5133127;27;20216;-73
2022/07/30 21:52:23;;;;;;;17.92;17.02;;;;;;;-141.02;100.00;88906.22;5133104;27;20199;-73
2022/07/30 21:54:51;;;;;;;18.55;17.65;;;;;;;-141.02;100.00;88933.47;5133066;27;20227;-73
2022/07/30 21:57:18;;;;;;;17.67;16.88;;;;;;;-141.02;100.00;88949.03;5133886;27;20221;-73
2022/07/30 21:59:45;;;;;;;17.33;16.52;;;;;;;-141.02;100.00;88952.94;5133004;27;20220;-73
2022/07/30 22:02:14;;;;;;;14.45;13.85;;;;;;;-141.02;100.00;89059.97;5133295;27;20269;-74
2022/07/30 22:04:42;;;;;;;16.65;15.95;;;;;;;-141.02;100.00;89089.16;5132923;28;20677;-73
2022/07/30 22:07:09;;;;;;;15.52;14.82;;;;;;;-141.02;100.00;89073.59;5132881;28;20227;-73
2022/07/30 22:09:36;;;;;;;15.95;15.25;;;;;;;-141.02;100.00;89085.25;5132914;28;20673;-73
2022/07/30 22:12:05;;;;;;;15.30;14.70;;;;;;;-141.02;100.00;89067.75;5133242;28;20219;-73
2022/07/30 22:14:32;;;;;;;15.15;14.55;;;;;;;-141.02;100.00;89079.41;5132669;28;20224;-74
2022/07/30 22:17:00;;;;;;;14.90;14.40;;;;;;;-141.02;100.00;89120.28;5132880;28;20535;-72
2022/07/30 22:19:29;;;;;;;13.82;13.32;;;;;;;-141.02;100.00;90469.09;5132863;28;20196;-74
2022/07/30 22:21:56;;;;;;;14.40;13.90;;;;;;;-141.02;100.00;89112.50;5133130;28;20201;-74
2022/07/30 22:24:23;;;;;;;14.00;13.50;;;;;;;-141.02;100.00;89128.06;5132792;28;20632;-73
2022/07/30 22:26:51;;;;;;;13.75;13.25;;;;;;;-141.02;100.00;89116.38;5135333;27;20709;-74
2022/07/30 22:29:18;;;;;;;13.98;13.48;;;;;;;-141.02;100.00;89104.72;5136891;27;20252;-74
2022/07/30 22:31:45;;;;;;;12.98;12.57;;;;;;;-141.02;100.00;89007.41;5137231;27;20196;-74
2022/07/30 22:34:13;;;;;;;12.82;12.43;;;;;;;-141.02;100.00;88999.63;5136773;27;20212;-74
2022/07/30 22:36:42;;;;;;;12.60;12.20;;;;;;;-141.02;100.00;88976.28;5137123;27;20200;-74
2022/07/30 22:39:09;;;;;;;12.82;12.43;;;;;;;-141.02;100.00;88937.38;5136719;27;20196;-75
2022/07/30 22:41:37;;;;;;;12.45;12.05;;;;;;;-141.02;100.00;88931.53;5136726;27;20688;-74
2022/07/30 22:44:05;;;;;;;12.00;11.60;;;;;;;-141.02;100.00;88845.91;5136648;27;20227;-74
2022/07/30 22:46:32;;;;;;;12.43;12.02;;;;;;;-141.02;100.00;88836.19;5136438;27;20597;-76
2022/07/30 22:49:00;;;;;;;11.38;10.98;;;;;;;-141.02;100.00;88808.94;5136875;27;20223;-76
2022/07/30 22:51:27;;;;;;;12.55;12.15;;;;;;;-141.02;100.00;88783.66;5136463;27;20192;-77
2022/07/30 22:53:56;;;;;;;11.65;11.25;;;;;;;-141.02;100.00;88787.53;5136468;27;20193;-76
2022/07/30 22:56:24;;;;;;;11.90;11.50;;;;;;;-141.02;100.00;88810.88;5136369;27;20200;-76
2022/07/30 22:58:51;;;;;;;11.30;11.00;;;;;;;-141.02;100.00;88789.47;5137190;27;20188;-75
2022/07/30 23:01:19;;;;;;;11.40;11.00;;;;;;;-141.02;100.00;88777.81;5136619;27;20202;-75
2022/07/30 23:03:46;;;;;;;10.90;10.60;;;;;;;-141.02;100.00;88758.34;5136234;27;20238;-75
2022/07/30 23:06:14;;;;;;;11.30;10.90;;;;;;;-141.02;100.00;88770.03;5136450;27;20197;-74
2022/07/30 23:08:41;;;;;;;10.77;10.48;;;;;;;-141.02;100.00;88703.88;5136156;27;20194;-74
2022/07/30 23:11:10;;;;;;;11.43;11.02;;;;;;;-141.02;100.00;88715.53;5136147;27;20196;-74
2022/07/30 23:13:38;;;;;;;11.40;11.00;;;;;;;-141.02;100.00;88711.66;5136088;27;20203;-75
2022/07/30 23:16:05;;;;;;;11.88;11.48;;;;;;;-141.02;100.00;88709.72;5135868;27;20235;-74
2022/07/30 23:18:33;;;;;;;11.95;11.55;;;;;;;-141.02;100.00;88748.63;5135963;27;20200;-75
2022/07/30 23:21:01;;;;;;;11.60;11.20;;;;;;;-141.02;100.00;88723.31;5135918;27;20208;-74
2022/07/30 23:23:29;;;;;;;12.50;12.10;;;;;;;-141.02;100.00;88736.94;5136187;27;20558;-75
2022/07/30 23:25:56;;;;;;;12.07;11.68;;;;;;;-141.02;100.00;88731.09;5135864;27;20239;-74
2022/07/30 23:28:25;;;;;;;11.60;11.20;;;;;;;-141.02;100.00;88789.47;5136089;27;20228;-75
2022/07/30 23:30:52;;;;;;;11.60;11.20;;;;;;;-141.02;100.00;88847.84;5135769;27;20280;-74
2022/07/30 23:33:20;;;;;;;11.00;10.63;;;;;;;-141.02;100.00;88935.41;5135665;27;20237;-74
2022/07/30 23:35:47;;;;;;;11.20;10.80;;;;;;;-141.02;100.00;88917.91;5135689;27;20199;-74
2022/07/30 23:38:15;;;;;;;11.93;11.52;;;;;;;-141.02;100.00;88925.69;5135065;27;20196;-74
2022/07/30 23:40:42;;;;;;;11.50;11.10;;;;;;;-141.02;100.00;88914.00;5135598;27;20694;-74
2022/07/30 23:43:09;;;;;;;11.50;11.10;;;;;;;-141.02;100.00;88904.28;5135467;27;20666;-73
2022/07/30 23:45:39;;;;;;;11.50;11.10;;;;;;;-141.02;100.00;88873.16;5135500;27;20203;-73
2022/07/30 23:48:06;;;;;;;11.20;10.90;;;;;;;-141.02;100.00;88826.44;5135355;27;20228;-73
2022/07/30 23:50:35;;;;;;;10.98;10.68;;;;;;;-141.02;100.00;89869.56;5135370;27;20203;-73
2022/07/30 23:53:03;;;;;;;10.90;10.60;;;;;;;-141.02;100.00;88875.09;5135333;27;20204;-74
2022/07/30 23:55:32;;;;;;;11.20;10.80;;;;;;;-141.02;100.00;88859.53;5135247;27;20249;-74
2022/07/30 23:58:00;;;;;;;11.40;11.00;;;;;;;-141.02;100.00;88857.59;5135228;27;20192;-73
